[Jeden Freitag | 19:00z - 22:00z| EDDF] Frankfurt Friday

Zu Eventkalender hinzugefügt: 587 Daten

Michael Eyecold

1283788
RG Frankfurt - Leitung
RG Frankfurt - NAV
Zeit für den Frankfurt Friday. Die 18 ist auf Grund der aktuellen Windbedingungen weiterhin geschlossen, weshalb ich ihr euch voraussichtlich auf eine 07C-Depature (unabhängig von der gewählten SID) freuen dürft. Wir freuen uns auf euren Besuch!
EDDF 181620Z 07014KT CAVOK 23/06 Q1022 NOSIG
 

Jan Hergeth

1419731
RG Frankfurt - Leitung
RG Frankfurt - Mentor
Schon seit 10 Minuten läuft der Frankfurt Friday und seit über einer Stunde die erste Auflage des neuen EDDM/EDDF Shuttles!
Das Wetter lädt an beiden Airports dazu ein, ein oder zwei Legs auf unserer neuen Rennstrecke zu fliegen :)
EDDF 091750Z 21008KT 9999 FEW009 BKN016 BKN025 14/13 Q1018 NOSIG
EDDM 091750Z 20003KT 180V240 CAVOK 12/11 Q1020 NOSIG
 

Felix Soest

1439797
RG Frankfurt - NAV
RG Frankfurt - Mentor
Da es ja keinen eigenen CPT-Post gab, mache ich das mal hier:
Trotz insgesamt guter Leistung hat es für @Patrick Weber heute leider nicht ganz gerreicht. Wir Prüfer sind uns jedoch sicher, dass es nächstes Mal klappen wird!
 

Jan Hergeth

1419731
RG Frankfurt - Leitung
RG Frankfurt - Mentor
Heute ist wieder Frankfurt Friday! Unsere Lotsen freuen sich auf euren Besuch als Warmup für das am Sonntag anstehende RealOps, für das noch einige freie Slots verfügbar sind :)
Ab 20:00 Uhr lokaler Zeit sind unsere Lotsen bei herbstlichem Wetter für euch da :)
EDDF 301100Z 3012/3118 20011KT 9999 BKN035 PROB30 TEMPO 3012/3102 SCT035​
 
Zuletzt bearbeitet von einem Moderator:

Jan Hergeth

1419731
RG Frankfurt - Leitung
RG Frankfurt - Mentor
Es ist wieder Frankfurt Friday!
Heute shuttlen wir zudem mit EDDB und unser neuer AFIS-Trainee @Hans-Martin Koerber absolviert sein Onlinetraining auf EDGS, also bietet sich - sofern das Wetter mitspielt- ein VFR Flug dorthin an :)
EDDF 131327Z 1313/1418 20005KT 3000 BR BKN003 BECMG 1313/1315 6000 BKN005 BECMG 1315/1316 SCT015
EDGS 131400Z 1315/1324 20010KT 9999 FEW020 BKN035 PROB30 TEMPO 1315/1319 BKN011 BECMG 1319/1322 SCT006 BKN011 TEMPO 1319/1322 2500 RA BKN003 BECMG 1322/1324 4000 BR BKN004
 

Jan Hergeth

1419731
RG Frankfurt - Leitung
RG Frankfurt - Mentor
Heute ist wieder Frankfurt Friday! Als gelungene Abrundung der Woche bietet sich außerdem ein Flug nach EDDM an, denn heute findet der sich alle vier Wochen wiederholende EDDF-->EDDM Shuttle statt :)
Das Wetter wird im Laufe des Abends spannend und spät in der Nacht könnte es sogar noch Schnee geben❄️
EDDF 041700Z 0418/0524 04004KT 9999 BKN030 TEMPO 0418/0422 SCT030 PROB40 TEMPO 0423/0505 4000 RA BR BKN008 BECMG 0500/0502 BKN012 PROB30 TEMPO 0502/0504 2000 -SNRA
 

Michael Eyecold

1283788
RG Frankfurt - Leitung
RG Frankfurt - NAV
Heute ist mal wieder Freitag! Leichter "overkill" auf den Centersektoren (3x Lower und 3x Upper) garantieren einen regen Frequenzwechsel beim Überqueren des Langener Luftraumes. Beim Upper gibt es natürlich auf allen 3 Stationen CPDLC.

Das TAF in Frankfurt ist ebenfalls vielversprechend (leichter Schnee):
EDDF 081100Z 0812/0918 26006KT 9999 SCT020 PROB30 TEMPO 0812/0818 BKN012 PROB30 TEMPO 0818/0824 4000 -SN BKN012 BECMG 0822/0824 34006KT TEMPO 0900/0910 BKN020 BECMG 0910/0912 04006KT

EDIT: Die Approach- und Bodenstationen sind nun übrigens auch zahlreich vertreten! :)
 
Zuletzt bearbeitet:
Oben